createdAt,value
2024-01-14T00:00:45.472Z,98366.13
2024-01-14T00:05:50.635Z,98357.41
2024-01-14T00:10:54.142Z,98359.19
2024-01-14T00:15:58.387Z,98363.59
2024-01-14T00:21:01.298Z,98355.56
2024-01-14T00:26:04.184Z,98352.47
2024-01-14T00:31:08.519Z,98344.59
2024-01-14T00:36:11.788Z,98335.88
2024-01-14T00:41:15.976Z,98324.53
2024-01-14T00:46:20.468Z,98314.06
2024-01-14T00:51:23.451Z,98302.13
2024-01-14T00:56:27.237Z,98300.19
2024-01-14T01:01:32.930Z,98296.88
2024-01-14T01:06:37.116Z,98289.31
2024-01-14T01:11:41.401Z,98293.53
2024-01-14T01:16:46.556Z,98290.91
2024-01-14T01:21:50.028Z,98303.97
2024-01-14T01:26:55.401Z,98289.84
2024-01-14T01:32:06.995Z,98286.47
2024-01-14T01:37:11.975Z,98269.81
2024-01-14T01:42:15.422Z,98275.28
2024-01-14T01:47:22.349Z,98273.44
2024-01-14T01:52:26.968Z,98271.66
2024-01-14T01:57:30.425Z,98269.19
2024-01-14T02:02:35.037Z,98268.56
2024-01-14T02:07:38.728Z,98261.47
2024-01-14T02:12:41.657Z,98250.03
2024-01-14T02:17:45.881Z,98248.38
2024-01-14T02:22:51.335Z,98252.00
2024-01-14T02:27:55.942Z,98241.53
2024-01-14T02:32:58.965Z,98236.06
2024-01-14T02:38:04.746Z,98229.22
2024-01-14T02:43:09.394Z,98233.75
2024-01-14T02:48:12.794Z,98229.47
2024-01-14T02:53:15.715Z,98220.78
2024-01-14T02:58:19.994Z,98214.69
2024-01-14T03:03:24.034Z,98215.63
2024-01-14T03:08:27.180Z,98191.84
2024-01-14T03:13:31.356Z,98193.84
2024-01-14T03:18:34.993Z,98189.22
2024-01-14T03:23:37.994Z,98185.75
2024-01-14T03:28:42.266Z,98180.44
2024-01-14T03:33:46.032Z,98174.28
2024-01-14T03:38:49.163Z,98174.22
2024-01-14T03:43:54.621Z,98176.69
2024-01-14T03:48:58.362Z,98168.91
2024-01-14T03:54:01.426Z,98162.69
2024-01-14T03:59:05.628Z,98155.44
2024-01-14T04:04:08.649Z,98153.75
2024-01-14T04:09:12.233Z,98151.19
2024-01-14T04:14:17.165Z,98139.78
2024-01-14T04:19:20.167Z,98133.88
2024-01-14T04:24:23.846Z,98112.28
2024-01-14T04:29:28.405Z,98112.13
2024-01-14T04:34:31.684Z,98121.97
2024-01-14T04:39:34.674Z,98112.19
2024-01-14T04:44:39.195Z,98120.91
2024-01-14T04:49:43.537Z,98115.75
2024-01-14T04:54:46.489Z,98108.75
2024-01-14T04:59:50.735Z,98106.25
2024-01-14T05:04:54.029Z,98102.66
2024-01-14T05:09:57.164Z,98096.59
2024-01-14T05:15:01.689Z,98097.41
2024-01-14T05:20:05.868Z,98086.94
2024-01-14T05:25:09.188Z,98083.50
2024-01-14T05:30:15.873Z,98085.47
2024-01-14T05:35:18.789Z,98090.53
2024-01-14T05:40:21.820Z,98092.34
2024-01-14T05:45:26.975Z,98090.53
2024-01-14T05:50:29.945Z,98081.00
2024-01-14T05:55:32.848Z,98081.31
2024-01-14T06:00:37.183Z,98075.28
2024-01-14T06:05:40.128Z,98073.69
2024-01-14T06:10:43.116Z,98077.22
2024-01-14T06:15:47.286Z,98069.53
2024-01-14T06:20:50.454Z,98066.91
2024-01-14T06:25:54.026Z,98063.38
2024-01-14T06:30:59.670Z,98060.66
2024-01-14T06:36:07.970Z,98052.03
2024-01-14T06:41:12.362Z,98052.25
2024-01-14T06:46:17.529Z,98050.50
2024-01-14T06:51:20.433Z,98049.94
2024-01-14T06:56:23.266Z,98042.34
2024-01-14T07:01:28.012Z,98037.94
2024-01-14T07:06:30.894Z,98035.69
2024-01-14T07:11:33.811Z,98035.75
2024-01-14T07:16:38.134Z,98041.16
2024-01-14T07:21:41.046Z,98040.28
2024-01-14T07:26:44.205Z,98034.44
2024-01-14T07:31:48.667Z,98032.03
2024-01-14T07:36:52.669Z,98028.22
2024-01-14T07:41:56.950Z,98023.03
2024-01-14T07:47:01.344Z,98036.75
2024-01-14T07:52:05.860Z,98035.97
2024-01-14T07:57:09.481Z,98031.44
2024-01-14T08:02:16.443Z,98026.06
2024-01-14T08:07:19.919Z,98026.06
2024-01-14T08:12:23.194Z,98027.97
2024-01-14T08:17:28.136Z,98015.66
2024-01-14T08:22:33.680Z,98019.91
2024-01-14T08:27:36.800Z,98019.03
2024-01-14T08:32:41.601Z,98013.13
2024-01-14T08:37:48.294Z,98000.75
2024-01-14T08:42:53.377Z,98009.22
2024-01-14T08:47:58.319Z,98003.94
2024-01-14T08:53:02.032Z,98004.13
2024-01-14T08:58:05.262Z,98005.97
2024-01-14T09:03:09.547Z,97997.75
2024-01-14T09:08:12.454Z,97992.72
2024-01-14T09:13:16.280Z,97993.44
2024-01-14T09:18:20.796Z,97988.59
2024-01-14T09:23:24.132Z,97985.84
2024-01-14T09:28:27.097Z,97986.88
2024-01-14T09:33:33.275Z,97997.53
2024-01-14T09:38:36.876Z,98000.34
2024-01-14T09:43:43.910Z,98000.00
2024-01-14T09:48:51.912Z,98006.00
2024-01-14T09:53:57.801Z,98002.31
2024-01-14T09:59:05.257Z,98004.00
2024-01-14T10:04:09.697Z,98017.00
2024-01-14T10:09:12.834Z,98003.41
2024-01-14T10:14:17.727Z,98000.59
2024-01-14T10:19:22.024Z,97992.38
2024-01-14T10:24:26.446Z,97988.38
2024-01-14T10:29:30.416Z,97969.25
2024-01-14T10:34:35.137Z,97960.47
2024-01-14T10:39:39.796Z,97953.47
2024-01-14T10:44:42.914Z,97944.53
2024-01-14T10:49:48.782Z,97927.72
2024-01-14T10:54:55.090Z,97921.72
2024-01-14T11:00:00.155Z,97922.00
2024-01-14T11:05:08.152Z,97909.63
2024-01-14T11:10:15.820Z,97918.41
2024-01-14T11:15:26.104Z,97909.19
2024-01-14T11:20:45.571Z,97899.66
2024-01-14T11:25:58.326Z,97881.31
2024-01-14T11:31:02.842Z,97874.97
2024-01-14T11:36:08.932Z,97853.06
2024-01-14T11:41:30.114Z,97849.25
2024-01-14T11:46:41.482Z,97841.41
2024-01-14T11:51:58.415Z,97835.28
2024-01-14T11:57:23.735Z,97822.34
2024-01-14T12:02:26.713Z,97806.56
2024-01-14T12:07:31.540Z,97809.38
2024-01-14T12:12:39.044Z,97795.38
2024-01-14T12:17:42.228Z,97779.81
2024-01-14T12:22:46.714Z,97769.47
2024-01-14T12:27:49.783Z,97766.59
2024-01-14T12:32:52.745Z,97740.72
2024-01-14T12:37:57.813Z,97733.22
2024-01-14T12:43:03.580Z,97717.41
2024-01-14T12:48:08.127Z,97711.09
2024-01-14T12:53:15.249Z,97704.91
2024-01-14T12:58:18.462Z,97692.16
2024-01-14T13:03:22.855Z,97683.19
2024-01-14T13:08:27.222Z,97678.19
2024-01-14T13:13:32.879Z,97678.31
2024-01-14T13:18:35.922Z,97676.03
2024-01-14T13:23:40.346Z,97667.47
2024-01-14T13:28:44.146Z,97661.22
2024-01-14T13:33:54.433Z,97646.59
2024-01-14T13:39:10.521Z,97643.13
2024-01-14T13:44:17.749Z,97632.25
2024-01-14T13:49:21.836Z,97628.13
2024-01-14T13:54:26.277Z,97627.06
2024-01-14T13:59:30.164Z,97618.13
2024-01-14T14:04:33.521Z,97612.25
2024-01-14T14:09:38.024Z,97605.06
2024-01-14T14:14:41.400Z,97605.59
2024-01-14T14:19:44.375Z,97606.44
2024-01-14T14:24:49.164Z,97600.53
2024-01-14T14:29:52.788Z,97603.88
2024-01-14T14:34:57.509Z,97599.56
2024-01-14T14:40:02.108Z,97596.25
2024-01-14T14:45:06.014Z,97586.91
2024-01-14T14:50:10.904Z,97576.78
2024-01-14T14:55:15.257Z,97572.84
2024-01-14T15:00:20.518Z,97573.09
2024-01-14T15:05:24.061Z,97566.47
2024-01-14T15:10:29.515Z,97551.75
2024-01-14T15:15:32.656Z,97556.88
2024-01-14T15:20:37.056Z,97557.97
2024-01-14T15:25:41.388Z,97539.81
2024-01-14T15:30:53.361Z,97541.69
2024-01-14T15:36:08.426Z,97533.34
2024-01-14T15:41:14.560Z,97535.06
2024-01-14T15:46:19.620Z,97529.81
2024-01-14T15:51:24.161Z,97515.06
2024-01-14T15:56:28.801Z,97508.75
2024-01-14T16:01:32.977Z,97503.13
2024-01-14T16:06:36.132Z,97493.94
2024-01-14T16:11:40.476Z,97493.25
2024-01-14T16:16:44.345Z,97484.19
2024-01-14T16:21:48.374Z,97478.88
2024-01-14T16:26:53.213Z,97474.34
2024-01-14T16:31:59.734Z,97475.59
2024-01-14T16:37:02.772Z,97472.53
2024-01-14T16:42:09.583Z,97468.59
2024-01-14T16:47:15.157Z,97462.78
2024-01-14T16:52:18.138Z,97456.88
2024-01-14T16:57:22.519Z,97457.03
2024-01-14T17:02:27.344Z,97454.19
2024-01-14T17:07:31.379Z,97448.19
2024-01-14T17:12:36.131Z,97441.81
2024-01-14T17:17:39.132Z,97436.13
2024-01-14T17:22:42.230Z,97423.06
2024-01-14T17:27:46.501Z,97425.84
2024-01-14T17:32:49.644Z,97424.84
2024-01-14T17:37:53.608Z,97419.38
2024-01-14T17:42:58.928Z,97410.69
2024-01-14T17:48:02.039Z,97414.56
2024-01-14T17:53:06.777Z,97405.81
2024-01-14T17:58:12.260Z,97399.81
2024-01-14T18:03:16.852Z,97384.22
2024-01-14T18:08:19.768Z,97374.63
2024-01-14T18:13:25.797Z,97376.38
2024-01-14T18:18:29.275Z,97363.50
2024-01-14T18:23:34.385Z,97368.81
2024-01-14T18:28:38.802Z,97357.09
2024-01-14T18:33:44.637Z,97355.25
2024-01-14T18:38:48.961Z,97346.72
2024-01-14T18:43:53.646Z,97342.88
2024-01-14T18:48:56.562Z,97337.56
2024-01-14T18:54:00.150Z,97350.53
2024-01-14T18:59:04.848Z,97347.00
2024-01-14T19:04:08.188Z,97342.13
2024-01-14T19:09:12.151Z,97335.88
2024-01-14T19:14:16.468Z,97340.94
2024-01-14T19:19:22.952Z,97328.28
2024-01-14T19:24:26.389Z,97323.75
2024-01-14T19:29:31.105Z,97321.53
2024-01-14T19:34:34.224Z,97323.41
2024-01-14T19:39:40.740Z,97324.91
2024-01-14T19:44:46.064Z,97315.41
2024-01-14T19:49:49.304Z,97322.13
2024-01-14T19:54:53.846Z,97322.00
2024-01-14T19:59:58.360Z,97323.06
2024-01-14T20:05:01.309Z,97300.59
2024-01-14T20:10:05.061Z,97286.94
2024-01-14T20:15:12.287Z,97284.50
2024-01-14T20:20:15.640Z,97281.63
2024-01-14T20:25:18.636Z,97280.53
2024-01-14T20:30:23.972Z,97278.19
2024-01-14T20:35:26.935Z,97271.88
2024-01-14T20:40:30.662Z,97271.75
2024-01-14T20:45:35.188Z,97259.63
2024-01-14T20:50:38.033Z,97256.09
2024-01-14T20:55:40.929Z,97250.97
2024-01-14T21:00:45.323Z,97241.69
2024-01-14T21:05:50.178Z,97241.63
2024-01-14T21:10:53.156Z,97239.94
2024-01-14T21:15:57.477Z,97227.06
2024-01-14T21:21:00.461Z,97217.56
2024-01-14T21:26:03.501Z,97212.91
2024-01-14T21:31:08.137Z,97211.41
2024-01-14T21:36:12.164Z,97210.31
2024-01-14T21:41:18.322Z,97213.72
2024-01-14T21:46:22.939Z,97218.97
2024-01-14T21:51:27.475Z,97217.38
2024-01-14T21:56:30.319Z,97214.94
2024-01-14T22:01:34.720Z,97214.09
2024-01-14T22:06:37.645Z,97207.53
2024-01-14T22:11:41.140Z,97205.94
2024-01-14T22:16:46.311Z,97204.34
2024-01-14T22:21:49.301Z,97206.38
2024-01-14T22:26:52.352Z,97207.38
2024-01-14T22:31:57.946Z,97201.25
2024-01-14T22:37:00.955Z,97198.81
2024-01-14T22:42:04.669Z,97196.94
2024-01-14T22:47:08.964Z,97197.28
2024-01-14T22:52:11.985Z,97208.31
2024-01-14T22:57:14.970Z,97204.78
2024-01-14T23:02:19.347Z,97203.84
2024-01-14T23:07:22.219Z,97203.28
2024-01-14T23:12:27.269Z,97199.72
2024-01-14T23:17:31.697Z,97197.88
2024-01-14T23:22:34.952Z,97204.94
2024-01-14T23:27:37.791Z,97198.06
2024-01-14T23:32:42.069Z,97191.78
2024-01-14T23:37:46.553Z,97185.56
2024-01-14T23:42:49.437Z,97182.97
2024-01-14T23:47:53.671Z,97177.69
2024-01-14T23:52:56.597Z,97163.00
2024-01-14T23:57:59.537Z,97158.56
